Time;durP1;ratioP1;P1;durP2;ratioP2;P2;SDS_P1;SDS_P2;PMS_P1;PMS_P2;Temp;Humidity;BMP_temperature;BMP_pressure;BME280_temperature;BME280_humidity;BME280_pressure;Samples;Min_cycle;Max_cycle;Signal;HPM_P1;HPM_P2
2022/10/29 07:30:44;;;;;;;;;;;;;;;16.98;72.71;97740.44;4213929;27;10398;-68
2022/10/29 07:32:47;;;;;;;;;;;;;;;17.29;72.03;97739.72;4214509;28;5679;-67
2022/10/29 07:34:50;;;;;;;;;;;;;;;17.50;71.64;97738.59;4214359;28;5769;-67
2022/10/29 07:36:53;;;;;;;;;;;;;;;17.68;71.44;97739.50;4214098;28;5797;-67
2022/10/29 07:38:56;;;;;;;;;;;;;;;17.82;71.06;97737.59;4214265;28;5690;-67
2022/10/29 07:40:58;;;;;;;;;;;;;;;17.93;70.64;97744.09;4214403;28;5788;-67
2022/10/29 07:43:02;;;;;;;;;;;;;;;18.03;70.48;97744.44;4214062;28;5702;-68
2022/10/29 07:45:05;;;;;;;;;;;;;;;18.12;70.32;97737.81;4214535;28;6505;-68
2022/10/29 07:47:10;;;;;;;;;;;;;;;18.21;69.85;97741.00;4214246;28;5749;-68
2022/10/29 07:49:12;;;;;;;;;;;;;;;18.28;70.16;97741.78;4213823;28;5236;-67
2022/10/29 07:51:15;;;;;;;;;;;;;;;18.33;69.97;97733.91;4207702;28;7714;-68
2022/10/29 07:53:18;;;;;;;;;;;;;;;18.36;69.78;97738.84;4213997;28;5694;-68
2022/10/29 07:55:20;;;;;;;;;;;;;;;18.41;69.81;97741.66;4213961;28;5705;-68
2022/10/29 07:57:23;;;;;;;;;;;;;;;18.47;69.52;97742.66;4213964;28;5865;-68
2022/10/29 07:59:26;;;;;;;;;;;;;;;18.50;69.29;97751.06;4213807;28;5824;-68
2022/10/29 08:01:29;;;;;;;;;;;;;;;18.52;69.35;97751.66;4211405;28;5769;-68
2022/10/29 08:03:33;;;;;;;;;;;;;;;18.55;69.32;97748.53;4214081;28;5801;-68
2022/10/29 08:05:36;;;;;;;;;;;;;;;18.57;69.20;97740.25;4213469;28;5788;-68
2022/10/29 08:07:39;;;;;;;;;;;;;;;18.59;69.21;97739.03;4213920;28;5757;-68
2022/10/29 08:09:41;;;;;;;;;;;;;;;18.62;69.25;97740.44;4205548;28;5690;-68
2022/10/29 08:11:44;;;;;;;;;;;;;;;18.65;68.91;97747.22;4213571;28;5812;-68
2022/10/29 08:13:52;;;;;;;;;;;;;;;18.66;68.85;97743.50;4213967;28;6787;-68
2022/10/29 08:15:55;;;;;;;;;;;;;;;18.67;68.92;97747.81;4211609;28;7256;-68
2022/10/29 08:17:58;;;;;;;;;;;;;;;18.66;68.79;97748.88;4207292;28;5727;-68
2022/10/29 08:20:02;;;;;;;;;;;;;;;18.68;68.63;97749.47;4211079;28;5732;-68
2022/10/29 08:22:05;;;;;;;;;;;;;;;18.68;68.73;97752.97;4203605;28;5674;-68
2022/10/29 08:24:07;;;;;;;;;;;;;;;18.70;68.45;97742.88;4210838;28;5828;-68
2022/10/29 08:26:10;;;;;;;;;;;;;;;18.71;68.79;97744.50;4213232;28;6375;-68
2022/10/29 08:28:14;;;;;;;;;;;;;;;18.73;68.76;97739.72;4213796;28;5694;-68
2022/10/29 08:30:17;;;;;;;;;;;;;;;18.74;68.46;97746.72;4209547;28;5695;-68
2022/10/29 08:32:20;;;;;;;;;;;;;;;18.75;68.61;97744.88;4202262;28;5781;-68
2022/10/29 08:34:23;;;;;;;;;;;;;;;18.76;68.34;97751.84;4198381;28;6387;-68
2022/10/29 08:36:27;;;;;;;;;;;;;;;18.77;68.32;97761.53;4187634;28;5158;-68
2022/10/29 08:38:30;;;;;;;;;;;;;;;18.77;68.46;97745.47;4198889;28;5788;-68
2022/10/29 08:40:41;;;;;;;;;;;;;;;18.78;68.12;97749.78;4200485;28;5801;-68
2022/10/29 08:42:57;;;;;;;;;;;;;;;18.80;68.26;97747.69;4195714;28;5737;-68
2022/10/29 08:45:20;;;;;;;;;;;;;;;18.82;68.21;97754.47;4197318;28;5729;-69
2022/10/29 08:47:24;;;;;;;;;;;;;;;18.85;68.06;97753.22;4192098;28;5692;-69
2022/10/29 08:49:33;;;;;;;;;;;;;;;18.85;67.98;97745.19;4191017;28;5693;-69
2022/10/29 08:51:40;;;;;;;;;;;;;;;18.87;67.92;97743.09;4193833;28;5698;-68
2022/10/29 08:53:47;;;;;;;;;;;;;;;18.86;67.81;97744.94;4195771;28;5694;-68
2022/10/29 08:56:16;;;;;;;;;;;;;;;18.88;68.02;97742.03;4194243;28;5714;-69
2022/10/29 08:58:27;;;;;;;;;;;;;;;18.89;67.52;97747.16;4192169;28;5731;-69
2022/10/29 09:00:34;;;;;;;;;;;;;;;18.90;67.82;97746.13;4196504;28;6350;-68
2022/10/29 09:02:39;;;;;;;;;;;;;;;18.92;67.61;97748.63;4190881;28;5892;-69
2022/10/29 09:04:41;;;;;;;;;;;;;;;18.94;67.74;97751.06;4189581;28;5810;-68
2022/10/29 09:06:57;;;;;;;;;;;;;;;18.93;67.49;97747.56;4197449;28;5892;-68
2022/10/29 09:09:17;;;;;;;;;;;;;;;18.94;67.57;97740.34;4197610;28;5820;-68
2022/10/29 09:11:42;;;;;;;;;;;;;;;18.95;67.72;97737.44;4198282;28;5845;-67
2022/10/29 09:13:52;;;;;;;;;;;;;;;18.96;67.68;97732.91;4193783;28;5742;-67
2022/10/29 09:16:05;;;;;;;;;;;;;;;18.95;67.61;97725.91;4191810;28;5839;-67
2022/10/29 09:18:24;;;;;;;;;;;;;;;18.96;67.36;97723.00;4192652;28;5694;-69
2022/10/29 09:20:37;;;;;;;;;;;;;;;19.00;67.25;97728.72;4193118;28;5794;-69
2022/10/29 09:22:51;;;;;;;;;;;;;;;19.01;67.00;97725.81;4195133;28;5679;-68
2022/10/29 09:25:05;;;;;;;;;;;;;;;19.03;67.30;97721.06;4188531;28;5991;-68
2022/10/29 09:27:17;;;;;;;;;;;;;;;19.05;67.35;97721.66;4195400;28;5694;-69
2022/10/29 09:29:31;;;;;;;;;;;;;;;19.05;67.05;97721.66;4198778;28;5749;-67
2022/10/29 09:31:40;;;;;;;;;;;;;;;19.07;67.11;97714.22;4197041;28;5850;-68
2022/10/29 09:33:44;;;;;;;;;;;;;;;19.09;66.94;97712.13;4199877;28;6380;-68
2022/10/29 09:35:52;;;;;;;;;;;;;;;19.09;67.19;97714.78;4200022;28;5690;-67
2022/10/29 09:38:00;;;;;;;;;;;;;;;19.10;66.96;97708.38;4196283;28;5715;-67
2022/10/29 09:40:06;;;;;;;;;;;;;;;19.12;67.08;97713.53;4199720;28;5698;-68
2022/10/29 09:42:11;;;;;;;;;;;;;;;19.13;66.89;97712.47;4198157;28;5759;-67
2022/10/29 09:44:21;;;;;;;;;;;;;;;19.12;66.80;97708.97;4202051;28;5797;-67
2022/10/29 09:46:35;;;;;;;;;;;;;;;19.13;66.72;97712.47;4198848;28;5868;-67
2022/10/29 09:48:45;;;;;;;;;;;;;;;19.12;66.93;97714.34;4199180;28;5718;-67
2022/10/29 09:50:57;;;;;;;;;;;;;;;19.13;66.76;97705.25;4192093;28;5785;-67
2022/10/29 09:53:02;;;;;;;;;;;;;;;19.14;66.79;97714.13;4191323;28;5785;-69
2022/10/29 09:55:07;;;;;;;;;;;;;;;19.15;66.63;97702.38;4192742;28;6509;-69
2022/10/29 09:57:19;;;;;;;;;;;;;;;19.14;66.73;97701.56;4195019;28;5924;-69
2022/10/29 09:59:29;;;;;;;;;;;;;;;19.16;66.67;97707.50;4186240;28;5727;-69
2022/10/29 10:01:32;;;;;;;;;;;;;;;19.16;66.58;97702.16;4199828;28;5720;-69
2022/10/29 10:03:39;;;;;;;;;;;;;;;19.16;66.83;97707.50;4201100;28;5709;-69
2022/10/29 10:05:58;;;;;;;;;;;;;;;19.17;66.84;97709.13;4188751;28;5702;-69
2022/10/29 10:08:08;;;;;;;;;;;;;;;19.18;66.52;97705.41;4195138;28;5868;-69
2022/10/29 10:10:21;;;;;;;;;;;;;;;19.17;66.25;97703.78;4192321;28;5785;-69
2022/10/29 10:12:27;;;;;;;;;;;;;;;19.17;66.75;97705.63;4201239;28;5698;-69
2022/10/29 10:14:30;;;;;;;;;;;;;;;19.17;66.70;97709.13;4200650;28;6771;-69
2022/10/29 10:16:33;;;;;;;;;;;;;;;19.18;66.38;97708.09;4195087;28;5706;-69
2022/10/29 10:18:40;;;;;;;;;;;;;;;19.18;66.29;97716.13;4197681;28;5810;-69
2022/10/29 10:20:46;;;;;;;;;;;;;;;19.20;66.61;97707.88;4192667;28;5782;-69
2022/10/29 10:22:48;;;;;;;;;;;;;;;19.20;66.55;97703.31;4195180;28;5789;-68
2022/10/29 10:24:52;;;;;;;;;;;;;;;19.21;66.49;97698.78;4200481;28;6387;-69
2022/10/29 10:26:55;;;;;;;;;;;;;;;19.20;66.32;97692.59;4200515;28;6615;-69
2022/10/29 10:29:14;;;;;;;;;;;;;;;19.20;66.24;97695.28;4200552;28;5797;-69
2022/10/29 10:31:17;;;;;;;;;;;;;;;19.22;66.29;97699.59;4200613;28;5674;-68
2022/10/29 10:33:24;;;;;;;;;;;;;;;19.23;66.24;97682.47;4200739;28;5835;-68
2022/10/29 10:35:29;;;;;;;;;;;;;;;19.25;66.48;97691.09;4200641;28;5702;-68
2022/10/29 10:37:33;;;;;;;;;;;;;;;19.25;66.39;97688.41;4200758;28;5722;-68
2022/10/29 10:39:37;;;;;;;;;;;;;;;19.27;66.20;97687.16;4200459;28;5336;-68
2022/10/29 10:41:43;;;;;;;;;;;;;;;19.28;66.26;97683.44;4184182;28;5822;-68
2022/10/29 10:43:47;;;;;;;;;;;;;;;19.29;66.18;97685.06;4184116;28;5711;-68
2022/10/29 10:45:54;;;;;;;;;;;;;;;19.31;66.45;97682.16;4193412;28;5799;-68
2022/10/29 10:47:58;;;;;;;;;;;;;;;19.32;66.61;97684.59;4200632;28;5690;-68
2022/10/29 10:50:15;;;;;;;;;;;;;;;19.34;66.42;97676.34;4200292;28;5705;-68
2022/10/29 10:52:25;;;;;;;;;;;;;;;19.34;66.57;97670.97;4200666;28;5678;-68
2022/10/29 10:54:32;;;;;;;;;;;;;;;19.34;66.58;97674.47;4200580;28;5698;-68
2022/10/29 10:56:55;;;;;;;;;;;;;;;19.34;66.70;97666.41;4200221;28;5785;-69
2022/10/29 10:59:07;;;;;;;;;;;;;;;19.36;66.66;97669.69;4194753;28;5694;-68
2022/10/29 11:01:14;;;;;;;;;;;;;;;19.37;66.46;97655.25;4187087;28;5806;-68
2022/10/29 11:03:21;;;;;;;;;;;;;;;19.37;66.42;97659.81;4196271;28;5114;-68
2022/10/29 11:05:32;;;;;;;;;;;;;;;19.37;66.68;97654.44;4190805;28;5701;-68
2022/10/29 11:07:42;;;;;;;;;;;;;;;19.38;66.47;97653.41;4199638;28;5801;-68
2022/10/29 11:09:49;;;;;;;;;;;;;;;19.39;66.64;97652.34;4200412;28;5721;-68
2022/10/29 11:12:00;;;;;;;;;;;;;;;19.41;66.82;97650.25;4200552;28;5817;-68
2022/10/29 11:14:11;;;;;;;;;;;;;;;19.43;66.63;97648.97;4200155;28;5694;-68
2022/10/29 11:16:18;;;;;;;;;;;;;;;19.46;66.60;97647.69;4200360;28;6184;-68
2022/10/29 11:18:27;;;;;;;;;;;;;;;19.46;66.81;97653.06;4200354;28;5785;-68
2022/10/29 11:20:36;;;;;;;;;;;;;;;19.45;66.74;97644.19;4200226;28;5717;-68
2022/10/29 11:22:52;;;;;;;;;;;;;;;19.44;67.06;97639.88;4200505;28;5694;-68
2022/10/29 11:25:00;;;;;;;;;;;;;;;19.44;66.99;97644.44;4195023;28;5777;-68
2022/10/29 11:27:11;;;;;;;;;;;;;;;19.46;66.87;97631.59;4200156;28;5840;-68
2022/10/29 11:29:25;;;;;;;;;;;;;;;19.46;66.94;97637.78;4200142;28;5678;-69
2022/10/29 11:31:37;;;;;;;;;;;;;;;19.47;66.86;97633.22;4200500;28;5816;-69
2022/10/29 11:33:48;;;;;;;;;;;;;;;19.47;66.63;97628.69;4200532;28;5876;-68
2022/10/29 11:35:58;;;;;;;;;;;;;;;19.47;66.70;97617.97;4200097;28;5801;-69
2022/10/29 11:38:13;;;;;;;;;;;;;;;19.47;67.16;97623.31;4200581;28;5713;-68
2022/10/29 11:40:21;;;;;;;;;;;;;;;19.49;66.90;97615.91;4200405;28;5701;-69
2022/10/29 11:42:26;;;;;;;;;;;;;;;19.51;66.81;97612.16;4200279;28;5175;-69
2022/10/29 11:44:37;;;;;;;;;;;;;;;19.50;67.01;97608.66;4200179;28;7139;-69
2022/10/29 11:46:52;;;;;;;;;;;;;;;19.50;66.86;97608.66;4199775;28;5703;-69
2022/10/29 11:49:06;;;;;;;;;;;;;;;19.52;66.94;97609.25;4183618;28;5800;-69
2022/10/29 11:51:21;;;;;;;;;;;;;;;19.54;66.70;97603.66;4183238;28;5704;-69
2022/10/29 11:53:52;;;;;;;;;;;;;;;19.54;66.61;97601.78;4197816;28;5686;-69
2022/10/29 11:56:06;;;;;;;;;;;;;;;19.57;66.74;97600.53;4199406;28;6059;-69
2022/10/29 11:58:17;;;;;;;;;;;;;;;19.57;66.52;97595.97;4196889;28;5710;-69
2022/10/29 12:00:22;;;;;;;;;;;;;;;19.58;66.49;97597.63;4199868;28;6599;-69
2022/10/29 12:02:37;;;;;;;;;;;;;;;19.59;66.58;97599.25;4200035;28;5694;-70
2022/10/29 12:04:48;;;;;;;;;;;;;;;19.60;66.59;97594.72;4199994;28;5705;-69
2022/10/29 12:07:04;;;;;;;;;;;;;;;19.57;66.37;97593.31;4202210;28;5793;-69
2022/10/29 12:09:33;;;;;;;;;;;;;;;19.57;66.33;97589.81;4203229;28;5769;-69
2022/10/29 12:11:41;;;;;;;;;;;;;;;19.59;66.51;97601.94;4203033;28;5784;-69
2022/10/29 12:13:56;;;;;;;;;;;;;;;19.60;66.24;97598.22;4203136;28;5697;-69
2022/10/29 12:16:11;;;;;;;;;;;;;;;19.60;66.47;97595.53;4202965;28;5702;-69
2022/10/29 12:18:25;;;;;;;;;;;;;;;19.62;66.25;97593.44;4202846;28;5777;-69
2022/10/29 12:20:37;;;;;;;;;;;;;;;19.62;66.14;97588.06;4202746;28;5082;-70
2022/10/29 12:22:47;;;;;;;;;;;;;;;19.62;65.92;97582.72;4202928;28;5917;-70
2022/10/29 12:25:08;;;;;;;;;;;;;;;19.62;66.05;97582.72;4195821;28;5691;-70
2022/10/29 12:27:20;;;;;;;;;;;;;;;19.62;65.78;97577.34;4202799;28;5827;-70
2022/10/29 12:29:29;;;;;;;;;;;;;;;19.62;65.56;97574.66;4202626;28;5777;-69
2022/10/29 12:31:41;;;;;;;;;;;;;;;19.62;65.53;97566.63;4202696;28;5843;-70
2022/10/29 12:33:51;;;;;;;;;;;;;;;19.65;65.35;97562.66;4202907;28;5681;-70
2022/10/29 12:36:01;;;;;;;;;;;;;;;19.66;65.06;97550.88;4202480;28;5710;-70
2022/10/29 12:38:22;;;;;;;;;;;;;;;19.67;65.05;97557.88;4202899;28;5777;-70
2022/10/29 12:40:30;;;;;;;;;;;;;;;19.68;64.97;97549.59;4202550;28;5800;-70
2022/10/29 12:42:34;;;;;;;;;;;;;;;19.70;65.08;97542.09;4202574;28;5749;-70
2022/10/29 12:44:43;;;;;;;;;;;;;;;19.71;64.82;97548.31;4202492;28;5697;-69
2022/10/29 12:46:54;;;;;;;;;;;;;;;19.74;64.77;97554.03;4202226;28;5887;-70
2022/10/29 12:49:06;;;;;;;;;;;;;;;19.76;64.42;97546.56;4202449;28;5697;-70
2022/10/29 12:51:16;;;;;;;;;;;;;;;19.78;64.47;97549.81;4202240;28;5792;-70
2022/10/29 12:53:28;;;;;;;;;;;;;;;19.78;64.49;97543.63;4202355;28;5753;-70
2022/10/29 12:55:33;;;;;;;;;;;;;;;19.77;64.50;97540.13;4202274;28;5879;-70
2022/10/29 12:57:36;;;;;;;;;;;;;;;19.78;64.52;97536.41;4202646;28;5698;-70
2022/10/29 12:59:42;;;;;;;;;;;;;;;19.80;64.26;97535.34;4202499;28;5083;-70
2022/10/29 13:01:46;;;;;;;;;;;;;;;19.81;64.17;97536.97;4199337;28;5853;-70
2022/10/29 13:04:22;;;;;;;;;;;;;;;19.83;64.18;97541.09;4201497;28;5807;-70
2022/10/29 13:06:55;;;;;;;;;;;;;;;19.84;64.33;97541.91;4201887;28;6486;-67
2022/10/29 13:09:11;;;;;;;;;;;;;;;19.82;64.32;97534.09;4202426;28;5683;-69
2022/10/29 13:11:23;;;;;;;;;;;;;;;19.82;64.25;97539.47;4195744;28;5792;-69
2022/10/29 13:13:38;;;;;;;;;;;;;;;19.81;64.59;97539.66;4194203;28;5705;-67
2022/10/29 13:15:44;;;;;;;;;;;;;;;19.80;64.43;97536.16;4191456;28;5889;-73
2022/10/29 13:17:49;;;;;;;;;;;;;;;19.81;64.42;97539.66;4192105;28;5691;-73
2022/10/29 13:19:56;;;;;;;;;;;;;;;19.81;64.26;97542.34;4199773;28;5690;-73
2022/10/29 13:22:31;;;;;;;;;;;;;;;19.81;64.44;97534.31;4196894;28;5641;-73
2022/10/29 13:24:34;;;;;;;;;;;;;;;19.81;64.36;97532.44;4192943;28;5809;-72
2022/10/29 13:27:08;;;;;;;;;;;;;;;19.81;64.37;97539.66;4195573;28;5917;-72
2022/10/29 13:29:11;;;;;;;;;;;;;;;19.83;64.41;97529.53;4193741;28;5704;-72
2022/10/29 13:31:50;;;;;;;;;;;;;;;19.81;64.16;97531.63;4197552;28;5876;-72
2022/10/29 13:33:55;;;;;;;;;;;;;;;19.80;64.12;97517.38;4189178;28;5070;-74
2022/10/29 13:35:59;;;;;;;;;;;;;;;19.81;64.33;97513.66;4199474;28;5912;-74
2022/10/29 13:38:14;;;;;;;;;;;;;;;19.81;64.45;97519.03;4188200;28;6563;-74
2022/10/29 13:40:40;;;;;;;;;;;;;;;19.82;64.09;97515.31;4195436;28;5701;-74
2022/10/29 13:42:44;;;;;;;;;;;;;;;19.82;64.32;97514.47;4190076;28;5896;-71
2022/10/29 13:44:48;;;;;;;;;;;;;;;19.82;64.31;97515.31;4198023;28;5792;-70
2022/10/29 13:46:56;;;;;;;;;;;;;;;19.83;64.07;97513.44;4198458;28;5789;-70
2022/10/29 13:49:07;;;;;;;;;;;;;;;19.85;64.33;97511.34;4188649;28;5806;-70
2022/10/29 13:51:14;;;;;;;;;;;;;;;19.85;64.26;97516.69;4191616;28;5712;-70
2022/10/29 13:53:22;;;;;;;;;;;;;;;19.82;64.27;97506.41;4198617;28;5707;-70
2022/10/29 13:55:32;;;;;;;;;;;;;;;19.83;64.44;97516.94;4195659;28;5726;-69
2022/10/29 13:57:38;;;;;;;;;;;;;;;19.84;64.28;97509.72;4195279;28;6578;-81
2022/10/29 13:59:45;;;;;;;;;;;;;;;19.85;64.34;97511.34;4195558;28;5793;-70
2022/10/29 14:02:02;;;;;;;;;;;;;;;19.83;64.32;97508.91;4195660;28;5820;-75
2022/10/29 14:04:25;;;;;;;;;;;;;;;19.82;63.95;97511.78;4192312;28;5700;-71
2022/10/29 14:06:33;;;;;;;;;;;;;;;19.82;63.92;97506.41;4195941;28;6055;-71
2022/10/29 14:08:41;;;;;;;;;;;;;;;19.81;64.23;97510.16;4192712;28;5719;-68
2022/10/29 14:10:47;;;;;;;;;;;;;;;19.82;64.04;97509.09;4198994;28;6637;-72
2022/10/29 14:12:54;;;;;;;;;;;;;;;19.82;64.07;97511.78;4193283;28;5699;-73
2022/10/29 14:15:04;;;;;;;;;;;;;;;19.81;63.83;97510.16;4192457;28;5686;-73
2022/10/29 14:17:11;;;;;;;;;;;;;;;19.80;63.87;97506.66;4194753;28;7030;-73
2022/10/29 14:19:21;;;;;;;;;;;;;;;19.81;63.85;97512.84;4190610;28;5836;-73
2022/10/29 14:21:26;;;;;;;;;;;;;;;19.80;63.60;97509.34;4193741;28;6388;-73
2022/10/29 14:23:31;;;;;;;;;;;;;;;19.81;63.72;97512.84;4193295;28;5869;-78
2022/10/29 14:25:36;;;;;;;;;;;;;;;19.80;63.74;97508.53;4196108;28;5698;-76
2022/10/29 14:27:38;;;;;;;;;;;;;;;19.78;63.58;97506.91;4191492;28;5774;-71
2022/10/29 14:29:41;;;;;;;;;;;;;;;19.77;64.05;97505.25;4194468;28;5765;-71
2022/10/29 14:31:45;;;;;;;;;;;;;;;19.77;63.71;97505.25;4192961;28;5678;-70
2022/10/29 14:33:54;;;;;;;;;;;;;;;19.78;63.95;97503.41;4191192;28;5865;-83
2022/10/29 14:36:05;;;;;;;;;;;;;;;19.78;63.82;97506.91;4187994;28;5797;-71
2022/10/29 14:38:09;;;;;;;;;;;;;;;19.79;63.75;97502.34;4194825;28;5904;-69
2022/10/29 14:40:19;;;;;;;;;;;;;;;19.80;63.53;97508.53;4197904;28;6584;-74
2022/10/29 14:42:29;;;;;;;;;;;;;;;19.81;63.72;97500.25;4191472;28;5695;-78
2022/10/29 14:44:32;;;;;;;;;;;;;;;19.82;63.76;97501.06;4192575;28;5711;-79
2022/10/29 14:46:37;;;;;;;;;;;;;;;19.81;63.49;97494.88;4197223;28;5887;-69
2022/10/29 14:48:49;;;;;;;;;;;;;;;19.82;63.50;97501.06;4193444;28;5854;-69
2022/10/29 14:50:55;;;;;;;;;;;;;;;19.82;63.33;97498.38;4191088;28;5706;-70
2022/10/29 14:53:01;;;;;;;;;;;;;;;19.82;63.51;97496.53;4188800;28;5918;-73
2022/10/29 14:55:07;;;;;;;;;;;;;;;19.80;63.65;97501.28;4188189;28;5774;-86
2022/10/29 14:57:14;;;;;;;;;;;;;;;19.82;63.78;97507.25;4195119;28;5714;-76
2022/10/29 14:59:20;;;;;;;;;;;;;;;19.82;63.72;97499.22;4196570;28;5765;-70
2022/10/29 15:01:30;;;;;;;;;;;;;;;19.83;63.46;97502.72;4193508;28;5863;-70
2022/10/29 15:03:35;;;;;;;;;;;;;;;19.83;63.44;97500.03;4192155;28;5743;-72
2022/10/29 15:05:38;;;;;;;;;;;;;;;19.83;63.53;97492.78;4193251;28;5892;-72
2022/10/29 15:07:46;;;;;;;;;;;;;;;19.83;63.67;97489.28;4192312;28;5694;-72
2022/10/29 15:10:02;;;;;;;;;;;;;;;19.82;63.53;97493.00;4186503;28;5683;-71
2022/10/29 15:12:16;;;;;;;;;;;;;;;19.82;63.62;97501.06;4186914;28;5769;-71
2022/10/29 15:14:26;;;;;;;;;;;;;;;19.82;63.58;97498.38;4191167;28;5854;-71
2022/10/29 15:16:33;;;;;;;;;;;;;;;19.81;63.79;97494.88;4195805;28;5898;-71
2022/10/29 15:18:48;;;;;;;;;;;;;;;19.82;63.71;97495.69;4193195;28;5786;-71
2022/10/29 15:20:53;;;;;;;;;;;;;;;19.81;63.57;97499.44;4196270;28;5690;-69
2022/10/29 15:22:58;;;;;;;;;;;;;;;19.81;63.84;97499.44;4194387;28;5709;-70
2022/10/29 15:25:06;;;;;;;;;;;;;;;19.82;63.71;97495.69;4196626;28;5885;-70
2022/10/29 15:27:14;;;;;;;;;;;;;;;19.81;63.79;97494.88;4192657;28;5981;-70
2022/10/29 15:29:23;;;;;;;;;;;;;;;19.81;63.79;97494.06;4190608;28;5823;-70
2022/10/29 15:31:43;;;;;;;;;;;;;;;19.81;63.56;97502.09;4190538;28;5849;-71
2022/10/29 15:33:46;;;;;;;;;;;;;;;19.81;64.05;97494.06;4193357;28;5690;-71
2022/10/29 15:35:51;;;;;;;;;;;;;;;19.81;64.10;97496.75;4192164;28;5722;-71
2022/10/29 15:37:55;;;;;;;;;;;;;;;19.80;63.86;97492.44;4186442;28;5719;-72
2022/10/29 15:40:14;;;;;;;;;;;;;;;19.79;63.88;97494.28;4189596;28;5900;-71
2022/10/29 15:42:21;;;;;;;;;;;;;;;19.79;64.20;97486.25;4205961;28;5687;-71
2022/10/29 15:44:38;;;;;;;;;;;;;;;19.78;64.08;97490.78;4195385;28;5719;-71
2022/10/29 15:46:49;;;;;;;;;;;;;;;19.79;64.11;97486.25;4191061;28;5786;-71
2022/10/29 15:48:52;;;;;;;;;;;;;;;19.76;64.39;97490.22;4192161;28;5797;-71
2022/10/29 15:50:56;;;;;;;;;;;;;;;19.75;64.18;97487.78;4201826;28;6792;-71
2022/10/29 15:53:04;;;;;;;;;;;;;;;19.74;64.21;97489.66;4191488;28;5711;-71
2022/10/29 15:55:20;;;;;;;;;;;;;;;19.75;64.31;97488.59;4197738;28;5800;-71
2022/10/29 15:57:30;;;;;;;;;;;;;;;19.75;64.59;97485.91;4195443;28;7002;-71
2022/10/29 15:59:33;;;;;;;;;;;;;;;19.72;64.26;97483.69;4201596;28;5828;-71
2022/10/29 16:01:35;;;;;;;;;;;;;;;19.71;64.65;97489.31;4188806;28;5867;-71
2022/10/29 16:03:41;;;;;;;;;;;;;;;19.67;64.56;97482.75;4192497;28;5878;-71
2022/10/29 16:05:46;;;;;;;;;;;;;;;19.65;64.47;97482.19;4196151;28;5848;-71
2022/10/29 16:07:50;;;;;;;;;;;;;;;19.65;64.57;97485.69;4195491;28;5780;-71
2022/10/29 16:09:54;;;;;;;;;;;;;;;19.64;64.21;97488.59;4197819;28;5703;-71
2022/10/29 16:11:58;;;;;;;;;;;;;;;19.58;64.34;97484.97;4198582;28;5806;-71
2022/10/29 16:14:01;;;;;;;;;;;;;;;19.59;64.57;97481.25;4196575;28;5721;-71
2022/10/29 16:16:06;;;;;;;;;;;;;;;19.59;64.32;97481.25;4192694;28;5685;-71
2022/10/29 16:18:08;;;;;;;;;;;;;;;19.59;64.31;97481.25;4192906;28;5827;-71
2022/10/29 16:20:15;;;;;;;;;;;;;;;19.59;64.11;97489.28;4202162;28;5690;-71
2022/10/29 16:22:28;;;;;;;;;;;;;;;19.58;64.35;97484.16;4189868;28;5929;-71
2022/10/29 16:24:32;;;;;;;;;;;;;;;19.58;64.44;97490.34;4198361;28;5694;-72
2022/10/29 16:26:35;;;;;;;;;;;;;;;19.58;64.04;97484.97;4195818;28;6251;-72
2022/10/29 16:28:40;;;;;;;;;;;;;;;19.57;64.28;97491.38;4196521;28;5822;-71
2022/10/29 16:30:42;;;;;;;;;;;;;;;19.56;64.38;97489.75;4200814;28;5891;-70
2022/10/29 16:32:48;;;;;;;;;;;;;;;19.55;64.28;97490.81;4202002;28;5781;-72
2022/10/29 16:34:52;;;;;;;;;;;;;;;19.54;64.15;97491.81;4198180;28;5757;-71
2022/10/29 16:36:54;;;;;;;;;;;;;;;19.52;64.31;97491.25;4192569;28;5985;-71
2022/10/29 16:38:57;;;;;;;;;;;;;;;19.52;64.08;97490.44;4194554;28;5820;-72
2022/10/29 16:41:00;;;;;;;;;;;;;;;19.51;64.36;97494.16;4198134;28;5932;-72
2022/10/29 16:43:03;;;;;;;;;;;;;;;19.49;64.42;97486.38;4195094;28;5777;-72
2022/10/29 16:45:11;;;;;;;;;;;;;;;19.47;64.29;97494.63;4190872;28;5807;-72
2022/10/29 16:47:15;;;;;;;;;;;;;;;19.45;64.07;97502.06;4194746;28;5773;-72
2022/10/29 16:49:19;;;;;;;;;;;;;;;19.45;64.29;97493.22;4199088;28;5891;-72
2022/10/29 16:51:21;;;;;;;;;;;;;;;19.42;64.51;97482.97;4197447;28;5789;-72
2022/10/29 16:53:24;;;;;;;;;;;;;;;19.41;64.00;97494.75;4201818;28;5101;-72
2022/10/29 16:55:28;;;;;;;;;;;;;;;19.41;64.53;97494.75;4194507;28;5693;-72
2022/10/29 16:57:31;;;;;;;;;;;;;;;19.39;64.47;97486.13;4191911;28;5719;-72
2022/10/29 16:59:34;;;;;;;;;;;;;;;19.39;64.22;97497.66;4199597;28;5699;-72
2022/10/29 17:01:38;;;;;;;;;;;;;;;19.38;64.26;97489.84;4200622;28;5918;-72
2022/10/29 17:03:41;;;;;;;;;;;;;;;19.37;64.42;97493.59;4205181;28;5789;-72
2022/10/29 17:05:46;;;;;;;;;;;;;;;19.34;64.10;97491.34;4198342;28;5814;-71
2022/10/29 17:07:48;;;;;;;;;;;;;;;19.35;64.50;97490.28;4196371;28;5796;-72
2022/10/29 17:09:52;;;;;;;;;;;;;;;19.33;64.33;97487.84;4194794;28;5777;-72
2022/10/29 17:11:55;;;;;;;;;;;;;;;19.34;64.70;97485.97;4199630;28;5678;-72
2022/10/29 17:14:01;;;;;;;;;;;;;;;19.34;64.80;97494.84;4192638;28;5879;-72
2022/10/29 17:16:08;;;;;;;;;;;;;;;19.33;64.46;97495.88;4195072;28;5690;-71
2022/10/29 17:18:12;;;;;;;;;;;;;;;19.32;64.63;97496.13;4191890;28;5943;-71
2022/10/29 17:20:19;;;;;;;;;;;;;;;19.32;64.77;97490.75;4191717;28;7761;-71
2022/10/29 17:22:22;;;;;;;;;;;;;;;19.31;64.84;97492.63;4196355;28;5782;-71
2022/10/29 17:24:25;;;;;;;;;;;;;;;19.31;64.70;97498.00;4190899;28;5774;-71
2022/10/29 17:26:28;;;;;;;;;;;;;;;19.31;64.73;97497.19;4192778;28;5850;-72
2022/10/29 17:28:31;;;;;;;;;;;;;;;19.31;64.55;97497.19;4191409;28;5785;-71
2022/10/29 17:30:33;;;;;;;;;;;;;;;19.31;64.91;97494.50;4193038;28;5727;-71
2022/10/29 17:32:37;;;;;;;;;;;;;;;19.32;64.90;97496.13;4194338;28;5773;-71
2022/10/29 17:34:41;;;;;;;;;;;;;;;19.32;65.05;97494.25;4192911;28;5837;-71
2022/10/29 17:36:43;;;;;;;;;;;;;;;19.31;64.99;97500.69;4190471;28;5796;-71
2022/10/29 17:38:46;;;;;;;;;;;;;;;19.31;64.94;97499.84;4185385;28;5874;-71
2022/10/29 17:40:49;;;;;;;;;;;;;;;19.29;65.18;97505.47;4185832;28;5761;-71
2022/10/29 17:42:52;;;;;;;;;;;;;;;19.30;64.78;97503.59;4196167;28;5868;-71
2022/10/29 17:44:54;;;;;;;;;;;;;;;19.30;64.87;97506.28;4192164;28;5756;-71
2022/10/29 17:46:57;;;;;;;;;;;;;;;19.27;65.14;97507.56;4198464;28;5174;-71
2022/10/29 17:49:00;;;;;;;;;;;;;;;19.28;64.97;97513.72;4199529;28;5886;-71
2022/10/29 17:51:05;;;;;;;;;;;;;;;19.27;65.08;97517.47;4198685;28;5712;-71
2022/10/29 17:53:08;;;;;;;;;;;;;;;19.25;65.25;97511.50;4194059;28;5670;-71
2022/10/29 17:55:10;;;;;;;;;;;;;;;19.26;65.37;97515.84;4200814;28;5652;-71
2022/10/29 17:57:15;;;;;;;;;;;;;;;19.25;65.09;97511.50;4196401;28;5724;-72
2022/10/29 17:59:18;;;;;;;;;;;;;;;19.25;65.21;97516.84;4197493;28;5840;-72
2022/10/29 18:01:21;;;;;;;;;;;;;;;19.22;65.04;97514.63;4197423;28;5669;-71
2022/10/29 18:03:25;;;;;;;;;;;;;;;19.20;65.40;97515.69;4197909;28;6638;-72
2022/10/29 18:05:30;;;;;;;;;;;;;;;19.22;65.22;97522.69;4198774;28;5686;-71
2022/10/29 18:07:34;;;;;;;;;;;;;;;19.21;65.10;97519.19;4196505;28;5668;-72
2022/10/29 18:09:37;;;;;;;;;;;;;;;19.19;65.16;97519.41;4200031;28;5690;-72
2022/10/29 18:11:40;;;;;;;;;;;;;;;19.20;65.19;97521.06;4195877;28;5773;-72
2022/10/29 18:13:44;;;;;;;;;;;;;;;19.20;65.31;97528.28;4194736;28;5695;-72
2022/10/29 18:15:47;;;;;;;;;;;;;;;19.19;65.15;97522.09;4192205;28;5790;-71
2022/10/29 18:17:50;;;;;;;;;;;;;;;19.19;65.51;97524.78;4193018;28;5770;-73
2022/10/29 18:19:57;;;;;;;;;;;;;;;19.19;65.12;97534.69;4189655;28;5894;-72
2022/10/29 18:22:00;;;;;;;;;;;;;;;19.18;65.49;97533.06;4195857;28;5852;-73
2022/10/29 18:24:05;;;;;;;;;;;;;;;19.18;65.20;97536.56;4194899;28;5864;-72
2022/10/29 18:26:20;;;;;;;;;;;;;;;19.18;65.17;97530.38;4194125;28;5679;-72
2022/10/29 18:28:23;;;;;;;;;;;;;;;19.17;65.17;97531.44;4191676;28;5774;-72
2022/10/29 18:30:26;;;;;;;;;;;;;;;19.17;65.27;97526.06;4185133;28;5787;-73
2022/10/29 18:32:29;;;;;;;;;;;;;;;19.16;65.14;97530.59;4186020;28;5790;-72
2022/10/29 18:34:33;;;;;;;;;;;;;;;19.16;65.46;97524.44;4190993;28;5674;-73
2022/10/29 18:36:36;;;;;;;;;;;;;;;19.15;65.04;97528.16;4187223;28;5847;-73
2022/10/29 18:38:38;;;;;;;;;;;;;;;19.14;65.23;97527.34;4189433;28;5705;-73
2022/10/29 18:40:42;;;;;;;;;;;;;;;19.14;65.63;97522.00;4189069;28;5900;-72
2022/10/29 18:42:45;;;;;;;;;;;;;;;19.15;65.41;97528.16;4190509;28;5799;-72
2022/10/29 18:44:48;;;;;;;;;;;;;;;19.14;65.46;97524.66;4189307;28;6005;-72